Time;durP1;ratioP1;P1;durP2;ratioP2;P2;SDS_P1;SDS_P2;PMS_P1;PMS_P2;Temp;Humidity;BMP_temperature;BMP_pressure;BME280_temperature;BME280_humidity;BME280_pressure;Samples;Min_cycle;Max_cycle;Signal;HPM_P1;HPM_P2
2023/02/22 00:00:01;;;;;;;2.83;2.28;;;3.80;99.90;;;;;;466267;255;28062;-82
2023/02/22 00:02:24;;;;;;;2.67;2.47;;;3.80;99.90;;;;;;466347;253;28076;-79
2023/02/22 00:04:14;;;;;;;2.53;2.33;;;3.80;99.90;;;;;;466275;253;28113;-82
2023/02/22 00:06:14;;;;;;;3.35;2.30;;;3.80;99.90;;;;;;465916;255;28068;-80
2023/02/22 00:08:15;;;;;;;2.80;2.60;;;3.80;99.90;;;;;;466335;253;29273;-83
2023/02/22 00:10:19;;;;;;;3.10;2.80;;;3.80;99.90;;;;;;466223;255;27672;-80
2023/02/22 00:12:19;;;;;;;2.45;2.25;;;3.80;99.90;;;;;;466418;253;27545;-82
2023/02/22 00:14:19;;;;;;;2.50;2.30;;;3.80;99.90;;;;;;466302;253;27493;-80
2023/02/22 00:16:20;;;;;;;3.05;2.40;;;3.80;99.90;;;;;;466313;255;27547;-81
2023/02/22 00:18:21;;;;;;;3.00;2.70;;;3.70;99.90;;;;;;466313;255;27602;-81
2023/02/22 00:20:23;;;;;;;3.60;2.75;;;3.70;99.90;;;;;;466237;253;27529;-81
2023/02/22 00:22:24;;;;;;;4.45;2.95;;;3.70;99.90;;;;;;466291;255;27573;-80
2023/02/22 00:24:25;;;;;;;6.03;2.80;;;3.70;99.90;;;;;;466293;255;27689;-82
2023/02/22 00:26:26;;;;;;;3.20;2.55;;;3.70;99.90;;;;;;466272;255;27633;-81
2023/02/22 00:28:29;;;;;;;3.60;2.80;;;3.60;99.90;;;;;;466321;255;28066;-80
2023/02/22 00:30:30;;;;;;;4.80;2.80;;;3.50;99.90;;;;;;466224;255;27993;-80
2023/02/22 00:32:30;;;;;;;4.40;3.60;;;3.50;99.90;;;;;;466260;255;28073;-83
2023/02/22 00:34:31;;;;;;;5.25;4.15;;;3.40;99.90;;;;;;466289;255;28069;-83
2023/02/22 00:36:33;;;;;;;4.05;3.20;;;3.30;99.90;;;;;;465865;255;27641;-80
2023/02/22 00:38:34;;;;;;;5.78;4.68;;;3.30;99.90;;;;;;466353;253;27586;-81
2023/02/22 00:40:35;;;;;;;4.05;3.50;;;3.30;99.90;;;;;;466285;255;27537;-80
2023/02/22 00:42:36;;;;;;;3.67;3.03;;;3.30;99.90;;;;;;466186;255;27665;-81
2023/02/22 00:44:38;;;;;;;3.30;2.87;;;3.40;99.90;;;;;;466253;255;28030;-81
2023/02/22 00:46:39;;;;;;;7.97;3.60;;;3.50;99.90;;;;;;466229;254;27565;-80
2023/02/22 00:48:40;;;;;;;3.20;3.00;;;3.50;99.90;;;;;;466105;255;27582;-84
2023/02/22 00:50:41;;;;;;;3.22;2.87;;;3.50;99.90;;;;;;466093;255;27550;-81
2023/02/22 00:52:43;;;;;;;5.00;3.08;;;3.60;99.90;;;;;;466294;253;27675;-80
2023/02/22 00:54:44;;;;;;;10.63;3.15;;;3.70;99.90;;;;;;466154;255;28145;-80
2023/02/22 00:56:45;;;;;;;3.50;3.05;;;3.70;99.90;;;;;;466176;255;28100;-80
2023/02/22 00:58:46;;;;;;;12.75;6.45;;;3.70;99.90;;;;;;466200;255;28147;-79
2023/02/22 01:00:48;;;;;;;13.43;7.10;;;3.70;99.90;;;;;;466160;255;27530;-79
2023/02/22 01:02:49;;;;;;;19.00;9.00;;;3.80;99.90;;;;;;466214;255;27597;-79
2023/02/22 01:04:50;;;;;;;19.15;9.63;;;3.90;99.90;;;;;;466236;254;27574;-79
2023/02/22 01:06:52;;;;;;;17.73;9.65;;;4.00;99.90;;;;;;466201;255;27537;-79
2023/02/22 01:08:53;;;;;;;13.88;7.32;;;4.10;99.90;;;;;;466188;255;27584;-79
2023/02/22 01:10:55;;;;;;;11.48;6.62;;;4.00;99.90;;;;;;466015;255;27573;-80
2023/02/22 01:12:55;;;;;;;10.88;6.00;;;4.00;99.90;;;;;;466251;253;27656;-80
2023/02/22 01:14:57;;;;;;;9.30;5.43;;;4.10;99.90;;;;;;466266;255;28066;-80
2023/02/22 01:16:58;;;;;;;7.75;5.18;;;4.10;99.90;;;;;;466196;255;28077;-80
2023/02/22 01:19:00;;;;;;;8.00;4.60;;;4.00;99.90;;;;;;466271;255;29229;-79
2023/02/22 01:21:00;;;;;;;5.95;4.10;;;3.90;99.90;;;;;;466245;255;27658;-82
2023/02/22 01:23:02;;;;;;;5.10;3.83;;;3.80;99.90;;;;;;466270;252;27584;-81
2023/02/22 01:25:05;;;;;;;6.25;4.30;;;3.70;99.90;;;;;;466235;255;28012;-78
2023/02/22 01:27:04;;;;;;;7.15;4.25;;;3.70;99.90;;;;;;466268;253;27588;-80
2023/02/22 01:29:07;;;;;;;6.93;4.50;;;3.60;99.90;;;;;;466213;255;27662;-81
2023/02/22 01:31:07;;;;;;;5.75;3.70;;;3.60;99.90;;;;;;466218;255;27538;-81
2023/02/22 01:33:08;;;;;;;5.28;3.40;;;3.70;99.90;;;;;;466252;253;27617;-82
2023/02/22 01:35:09;;;;;;;7.25;2.87;;;3.70;99.90;;;;;;466212;255;27619;-83
2023/02/22 01:37:10;;;;;;;4.03;3.15;;;3.70;99.90;;;;;;466215;255;27542;-80
2023/02/22 01:39:12;;;;;;;4.53;3.10;;;3.80;99.90;;;;;;466215;255;28149;-80
2023/02/22 01:41:16;;;;;;;3.30;3.00;;;3.80;99.90;;;;;;466197;255;28891;-79
2023/02/22 01:43:14;;;;;;;4.65;2.85;;;3.80;99.90;;;;;;466149;255;28170;-80
2023/02/22 01:45:15;;;;;;;4.12;2.45;;;3.80;99.90;;;;;;465915;255;27584;-79
2023/02/22 01:47:17;;;;;;;3.92;2.83;;;3.80;99.90;;;;;;466228;255;27641;-80
2023/02/22 01:49:18;;;;;;;3.28;2.78;;;3.80;99.90;;;;;;466128;255;27590;-81
2023/02/22 01:51:19;;;;;;;4.45;3.05;;;3.80;99.90;;;;;;466220;255;27668;-83
2023/02/22 01:53:20;;;;;;;2.35;2.10;;;3.80;99.90;;;;;;466221;255;27681;-81
2023/02/22 01:55:22;;;;;;;4.22;2.72;;;3.80;99.90;;;;;;466074;255;27602;-80
2023/02/22 01:57:23;;;;;;;2.92;2.58;;;3.70;99.90;;;;;;466241;255;27652;-81
2023/02/22 01:59:24;;;;;;;2.53;2.30;;;3.70;99.90;;;;;;466228;255;27582;-80
2023/02/22 02:01:25;;;;;;;2.45;2.12;;;3.70;99.90;;;;;;466262;255;28046;-80
2023/02/22 02:03:27;;;;;;;2.35;2.15;;;3.60;99.90;;;;;;466166;255;27991;-79
2023/02/22 02:05:30;;;;;;;2.60;2.40;;;3.60;99.90;;;;;;466231;255;28080;-79
2023/02/22 02:07:29;;;;;;;2.62;2.40;;;3.60;99.90;;;;;;466230;255;29204;-79
2023/02/22 02:09:30;;;;;;;2.60;2.30;;;3.60;99.90;;;;;;466028;255;27545;-78
2023/02/22 02:11:32;;;;;;;2.28;2.00;;;3.70;99.90;;;;;;466194;255;27576;-83
2023/02/22 02:13:33;;;;;;;1.92;1.83;;;3.70;99.90;;;;;;466217;255;27545;-80
2023/02/22 02:15:34;;;;;;;2.10;1.80;;;3.70;99.90;;;;;;466203;255;27658;-82
2023/02/22 02:17:36;;;;;;;1.90;1.80;;;3.70;99.90;;;;;;466204;252;27549;-81
2023/02/22 02:19:37;;;;;;;2.28;2.17;;;3.70;99.90;;;;;;466212;255;27684;-80
2023/02/22 02:21:38;;;;;;;3.42;2.45;;;3.60;99.90;;;;;;466226;255;27602;-82
2023/02/22 02:23:43;;;;;;;2.40;2.20;;;3.70;99.90;;;;;;466201;255;27541;-80
2023/02/22 02:25:40;;;;;;;3.22;2.20;;;3.70;99.90;;;;;;466056;255;28125;-80
2023/02/22 02:27:42;;;;;;;3.10;2.50;;;3.70;99.90;;;;;;466190;255;28013;-79
2023/02/22 02:29:43;;;;;;;2.72;2.25;;;3.70;99.90;;;;;;466183;255;28202;-80
2023/02/22 02:31:44;;;;;;;2.50;2.15;;;3.60;99.90;;;;;;466197;255;28072;-79
2023/02/22 02:33:45;;;;;;;2.30;2.10;;;3.70;99.90;;;;;;466221;255;27553;-79
2023/02/22 02:35:47;;;;;;;2.78;2.58;;;3.70;99.90;;;;;;466222;255;27597;-79
2023/02/22 02:37:48;;;;;;;2.20;2.00;;;3.70;99.90;;;;;;465557;255;27694;-79
2023/02/22 02:39:49;;;;;;;5.12;2.17;;;3.70;99.90;;;;;;466139;255;27562;-79
2023/02/22 02:41:50;;;;;;;3.67;2.35;;;3.70;99.90;;;;;;466166;255;27589;-80
2023/02/22 02:43:52;;;;;;;5.25;2.28;;;3.60;99.90;;;;;;466195;255;27582;-79
2023/02/22 02:45:53;;;;;;;2.60;2.10;;;3.60;99.90;;;;;;466336;253;27584;-82
2023/02/22 02:47:57;;;;;;;3.62;2.30;;;3.50;99.90;;;;;;466237;255;27585;-80
2023/02/22 02:49:55;;;;;;;2.50;2.30;;;3.50;99.90;;;;;;466165;255;28017;-81
2023/02/22 02:51:57;;;;;;;1.92;1.83;;;3.50;99.90;;;;;;466215;255;28076;-80
2023/02/22 02:53:58;;;;;;;2.22;2.05;;;3.50;99.90;;;;;;466217;255;28085;-79
2023/02/22 02:55:59;;;;;;;2.85;2.12;;;3.40;99.90;;;;;;466148;255;28048;-79
2023/02/22 02:58:03;;;;;;;2.45;2.00;;;3.40;99.90;;;;;;466204;255;27580;-81
2023/02/22 03:00:02;;;;;;;2.30;1.90;;;3.40;99.90;;;;;;466376;253;27618;-81
2023/02/22 03:02:03;;;;;;;2.87;2.37;;;3.30;99.90;;;;;;466162;255;27519;-80
2023/02/22 03:04:04;;;;;;;2.50;2.30;;;3.30;99.90;;;;;;466177;255;27589;-81
2023/02/22 03:06:05;;;;;;;3.53;2.10;;;3.30;99.90;;;;;;466184;255;27570;-80
2023/02/22 03:08:07;;;;;;;2.83;2.40;;;3.20;99.90;;;;;;466178;255;28024;-79
2023/02/22 03:10:08;;;;;;;3.37;2.05;;;3.20;99.90;;;;;;466373;253;27555;-79
2023/02/22 03:12:09;;;;;;;2.17;1.90;;;3.20;99.90;;;;;;465986;255;27696;-81
2023/02/22 03:14:10;;;;;;;2.50;2.03;;;3.30;99.90;;;;;;466207;255;27604;-80
2023/02/22 03:16:12;;;;;;;2.80;2.37;;;3.20;99.90;;;;;;465870;255;27588;-80
2023/02/22 03:18:16;;;;;;;2.00;1.90;;;3.30;99.90;;;;;;466175;255;28074;-81
2023/02/22 03:20:14;;;;;;;2.65;2.45;;;3.30;99.90;;;;;;466196;255;28064;-80
2023/02/22 03:22:15;;;;;;;2.42;2.22;;;3.30;99.90;;;;;;466347;253;29265;-83
2023/02/22 03:24:17;;;;;;;2.30;2.10;;;3.40;99.90;;;;;;466162;255;27530;-80
2023/02/22 03:26:18;;;;;;;3.10;2.20;;;3.40;99.90;;;;;;466149;255;27668;-79
2023/02/22 03:28:19;;;;;;;2.80;2.10;;;3.40;99.90;;;;;;466234;255;27593;-82
2023/02/22 03:30:22;;;;;;;2.30;2.10;;;3.40;99.90;;;;;;466211;255;27553;-80
2023/02/22 03:32:22;;;;;;;4.05;2.40;;;3.30;99.90;;;;;;466214;255;27562;-80
2023/02/22 03:34:23;;;;;;;2.60;2.40;;;3.20;99.90;;;;;;466275;255;27541;-80
2023/02/22 03:36:24;;;;;;;4.65;2.47;;;3.10;99.90;;;;;;466068;255;27580;-80
2023/02/22 03:38:25;;;;;;;2.97;2.60;;;3.00;99.90;;;;;;466216;255;27590;-81
2023/02/22 03:40:27;;;;;;;4.47;2.05;;;3.00;99.90;;;;;;466196;255;27609;-82
2023/02/22 03:42:28;;;;;;;5.87;2.30;;;2.90;99.90;;;;;;465882;255;27611;-79
2023/02/22 03:44:29;;;;;;;2.80;2.30;;;2.90;99.90;;;;;;466085;255;28106;-83
2023/02/22 03:46:30;;;;;;;2.25;2.05;;;2.90;99.90;;;;;;466277;253;28099;-80
2023/02/22 03:48:32;;;;;;;3.35;2.00;;;2.90;99.90;;;;;;466196;250;27573;-80
2023/02/22 03:50:34;;;;;;;2.45;2.20;;;2.90;99.90;;;;;;466250;255;27632;-81
2023/02/22 03:52:34;;;;;;;2.45;2.25;;;2.90;99.90;;;;;;466525;253;27591;-80
2023/02/22 03:54:35;;;;;;;6.70;2.65;;;3.00;99.90;;;;;;466187;255;27578;-79
2023/02/22 03:56:37;;;;;;;4.20;2.65;;;3.00;99.90;;;;;;466279;255;27637;-83
2023/02/22 03:58:38;;;;;;;2.97;2.20;;;3.00;99.90;;;;;;466263;255;27538;-83
2023/02/22 04:00:43;;;;;;;2.40;2.20;;;3.00;99.90;;;;;;466231;255;27960;-80
2023/02/22 04:02:40;;;;;;;2.62;2.15;;;3.00;99.90;;;;;;466777;253;28106;-80
2023/02/22 04:04:42;;;;;;;3.35;1.83;;;2.80;99.90;;;;;;466226;255;28062;-80
2023/02/22 04:06:43;;;;;;;2.08;1.90;;;2.80;99.90;;;;;;466281;255;28049;-80
2023/02/22 04:08:44;;;;;;;2.95;2.40;;;2.80;99.90;;;;;;466405;253;27674;-79
2023/02/22 04:10:45;;;;;;;2.97;2.40;;;2.90;99.90;;;;;;465924;255;27665;-80
2023/02/22 04:12:47;;;;;;;3.53;2.35;;;2.90;99.90;;;;;;466210;255;27592;-80
2023/02/22 04:14:48;;;;;;;2.47;2.28;;;2.80;99.90;;;;;;466212;255;27581;-81
2023/02/22 04:16:49;;;;;;;2.90;2.60;;;2.80;99.90;;;;;;466326;253;27549;-79
2023/02/22 04:18:50;;;;;;;2.10;1.95;;;2.70;99.90;;;;;;466363;253;27631;-80
2023/02/22 04:20:52;;;;;;;3.42;2.85;;;2.70;99.90;;;;;;466148;255;27642;-79
2023/02/22 04:22:53;;;;;;;5.55;2.75;;;2.60;99.90;;;;;;466234;254;27589;-78
2023/02/22 04:24:54;;;;;;;5.30;2.55;;;2.50;99.90;;;;;;466223;255;27857;-80
2023/02/22 04:26:55;;;;;;;3.45;2.60;;;2.60;99.90;;;;;;466217;255;27634;-81
2023/02/22 04:28:57;;;;;;;2.72;2.45;;;2.60;99.90;;;;;;466159;255;27609;-80
2023/02/22 04:30:58;;;;;;;2.60;2.40;;;2.70;99.90;;;;;;466217;255;28126;-81
2023/02/22 04:32:59;;;;;;;4.12;2.62;;;2.70;99.90;;;;;;466159;255;28069;-84
2023/02/22 04:35:00;;;;;;;2.97;2.67;;;2.80;99.90;;;;;;466222;255;29245;-80
2023/02/22 04:37:02;;;;;;;2.45;2.17;;;2.80;99.90;;;;;;466239;252;27656;-80
2023/02/22 04:39:04;;;;;;;2.62;2.40;;;2.80;99.90;;;;;;466159;255;27573;-81
2023/02/22 04:41:04;;;;;;;2.00;1.90;;;2.90;99.90;;;;;;466272;253;27601;-77
2023/02/22 04:43:05;;;;;;;2.72;2.20;;;2.90;99.90;;;;;;466207;255;27703;-77
2023/02/22 04:45:07;;;;;;;3.37;2.62;;;2.90;99.90;;;;;;466220;255;27573;-78
2023/02/22 04:47:08;;;;;;;2.47;2.28;;;2.80;99.90;;;;;;466254;255;27552;-79
2023/02/22 04:49:09;;;;;;;3.08;2.40;;;2.80;99.90;;;;;;466219;255;27593;-79
2023/02/22 04:51:10;;;;;;;2.87;2.17;;;2.90;99.90;;;;;;466398;253;27927;-77
2023/02/22 04:53:12;;;;;;;5.22;2.65;;;2.90;99.90;;;;;;466209;255;27607;-79
2023/02/22 04:55:13;;;;;;;3.22;2.92;;;2.90;99.90;;;;;;466291;253;27678;-79
2023/02/22 04:57:14;;;;;;;6.28;2.78;;;2.80;99.90;;;;;;466253;255;28192;-77
2023/02/22 04:59:15;;;;;;;3.47;2.72;;;2.80;99.90;;;;;;466266;253;28204;-78
2023/02/22 05:01:17;;;;;;;2.97;2.60;;;2.80;99.90;;;;;;466276;255;28029;-78
2023/02/22 05:03:18;;;;;;;3.87;2.83;;;2.70;99.90;;;;;;466257;255;27684;-77
2023/02/22 05:05:20;;;;;;;4.10;2.95;;;2.70;99.90;;;;;;466254;253;27594;-78
2023/02/22 05:07:20;;;;;;;4.53;3.15;;;2.70;99.90;;;;;;466288;255;27461;-77
2023/02/22 05:09:22;;;;;;;4.60;2.80;;;2.70;99.90;;;;;;466298;253;27687;-77
2023/02/22 05:11:23;;;;;;;3.45;2.75;;;2.60;99.90;;;;;;465950;255;27533;-77
2023/02/22 05:13:24;;;;;;;3.45;2.30;;;2.60;99.90;;;;;;466159;255;27616;-78
2023/02/22 05:15:26;;;;;;;3.37;2.25;;;2.50;99.90;;;;;;466266;255;28078;-77
2023/02/22 05:17:27;;;;;;;2.83;2.40;;;2.50;99.90;;;;;;466276;255;27654;-79
2023/02/22 05:19:28;;;;;;;4.20;2.55;;;2.50;99.90;;;;;;466276;255;27582;-78
2023/02/22 05:21:29;;;;;;;4.00;2.67;;;2.50;99.90;;;;;;466215;255;27593;-77
2023/02/22 05:23:30;;;;;;;2.35;2.15;;;2.50;99.90;;;;;;466187;255;27572;-78
2023/02/22 05:25:32;;;;;;;2.60;2.40;;;2.60;99.90;;;;;;466184;255;29202;-77
2023/02/22 05:27:33;;;;;;;4.37;2.53;;;2.60;99.90;;;;;;466213;255;28006;-80
2023/02/22 05:29:34;;;;;;;4.97;2.60;;;2.60;99.90;;;;;;466181;255;29165;-78
2023/02/22 05:31:35;;;;;;;4.78;2.15;;;2.70;99.90;;;;;;466260;255;27989;-77
2023/02/22 05:33:38;;;;;;;3.83;2.70;;;2.70;99.90;;;;;;466241;255;27652;-77
2023/02/22 05:35:38;;;;;;;2.92;2.62;;;2.80;99.90;;;;;;466089;255;27547;-78
2023/02/22 05:37:39;;;;;;;3.55;2.70;;;2.80;99.90;;;;;;466417;253;27569;-77
2023/02/22 05:39:40;;;;;;;2.62;2.33;;;2.80;99.90;;;;;;466200;255;27582;-77
2023/02/22 05:41:42;;;;;;;4.55;3.05;;;2.70;99.90;;;;;;466125;253;27549;-76
2023/02/22 05:43:43;;;;;;;5.15;2.75;;;2.70;99.90;;;;;;466177;254;27711;-79
2023/02/22 05:45:44;;;;;;;3.22;2.70;;;2.70;99.90;;;;;;466226;255;27510;-79
2023/02/22 05:47:45;;;;;;;6.57;2.55;;;2.60;99.90;;;;;;466233;255;27679;-78
2023/02/22 05:49:47;;;;;;;2.70;2.50;;;2.60;99.90;;;;;;466197;255;27589;-78
2023/02/22 05:51:48;;;;;;;4.68;2.80;;;2.60;99.90;;;;;;466246;253;27567;-77
2023/02/22 05:53:51;;;;;;;5.47;2.12;;;2.60;99.90;;;;;;466218;254;28078;-79
2023/02/22 05:55:50;;;;;;;3.00;2.70;;;2.60;99.90;;;;;;466193;255;27974;-79
2023/02/22 05:57:52;;;;;;;4.62;2.65;;;2.60;99.90;;;;;;466215;255;28173;-79
2023/02/22 05:59:53;;;;;;;2.40;2.20;;;2.60;99.90;;;;;;466169;255;27602;-77
2023/02/22 06:01:54;;;;;;;4.45;2.95;;;2.60;99.90;;;;;;466249;255;27664;-77
2023/02/22 06:03:55;;;;;;;2.62;2.42;;;2.60;99.90;;;;;;466140;255;27577;-77
2023/02/22 06:05:57;;;;;;;3.03;2.53;;;2.60;99.90;;;;;;466224;255;27538;-77
2023/02/22 06:07:58;;;;;;;3.78;2.45;;;2.60;99.90;;;;;;466205;255;27602;-77
2023/02/22 06:09:59;;;;;;;2.90;2.60;;;2.60;99.90;;;;;;466206;253;27938;-78
2023/02/22 06:12:00;;;;;;;3.40;2.58;;;2.60;99.90;;;;;;466227;255;27541;-83
2023/02/22 06:14:02;;;;;;;2.80;2.50;;;2.60;99.90;;;;;;466195;255;27657;-78
2023/02/22 06:16:03;;;;;;;6.75;2.47;;;2.50;99.90;;;;;;466313;253;27542;-80
2023/02/22 06:18:04;;;;;;;4.40;2.92;;;2.60;99.90;;;;;;466227;255;27630;-78
2023/02/22 06:20:06;;;;;;;4.43;3.15;;;2.60;99.90;;;;;;466220;255;27604;-77
2023/02/22 06:22:07;;;;;;;7.43;2.53;;;2.50;99.90;;;;;;466196;255;28066;-77
2023/02/22 06:24:08;;;;;;;2.90;2.70;;;2.50;99.90;;;;;;466205;255;28166;-80
2023/02/22 06:26:09;;;;;;;4.75;3.10;;;2.50;99.90;;;;;;466322;253;28120;-79
2023/02/22 06:28:10;;;;;;;4.95;2.72;;;2.50;99.90;;;;;;466240;255;29127;-79
2023/02/22 06:30:12;;;;;;;8.02;2.85;;;2.50;99.90;;;;;;466383;253;27574;-82
2023/02/22 06:32:13;;;;;;;4.50;2.80;;;2.50;99.90;;;;;;466232;255;27558;-79
2023/02/22 06:34:14;;;;;;;2.90;2.70;;;2.60;99.90;;;;;;466187;255;27692;-81
2023/02/22 06:36:15;;;;;;;3.65;3.20;;;2.60;99.90;;;;;;466187;255;27621;-79
2023/02/22 06:38:17;;;;;;;4.97;3.40;;;2.50;99.90;;;;;;466190;255;27582;-80
2023/02/22 06:40:18;;;;;;;3.60;2.50;;;2.60;99.90;;;;;;466203;255;27953;-79
2023/02/22 06:42:19;;;;;;;4.90;2.72;;;2.60;99.90;;;;;;466227;255;27642;-80
2023/02/22 06:44:21;;;;;;;2.70;2.50;;;2.60;99.90;;;;;;466208;255;27588;-80
2023/02/22 06:46:22;;;;;;;3.25;2.70;;;2.60;99.90;;;;;;466202;255;27533;-80
2023/02/22 06:48:23;;;;;;;2.70;2.47;;;2.50;99.90;;;;;;466200;255;27589;-79
2023/02/22 06:50:25;;;;;;;5.15;2.75;;;2.50;99.90;;;;;;466212;255;28130;-80
2023/02/22 06:52:26;;;;;;;4.82;2.83;;;2.50;99.90;;;;;;466183;255;28210;-82
2023/02/22 06:54:27;;;;;;;3.85;2.95;;;2.50;99.90;;;;;;466139;255;29274;-78
2023/02/22 06:56:28;;;;;;;3.90;3.20;;;2.50;99.90;;;;;;466200;255;27983;-79
2023/02/22 06:58:29;;;;;;;4.82;2.90;;;2.60;99.90;;;;;;465423;255;27684;-80
2023/02/22 07:00:31;;;;;;;4.18;2.60;;;2.60;99.90;;;;;;466005;255;27597;-80
2023/02/22 07:02:32;;;;;;;3.55;2.83;;;2.60;99.90;;;;;;466228;255;27538;-81
2023/02/22 07:04:33;;;;;;;3.60;3.30;;;2.60;99.90;;;;;;466225;253;27595;-81
2023/02/22 07:06:35;;;;;;;4.15;3.50;;;2.70;99.90;;;;;;466220;255;27581;-79
2023/02/22 07:08:36;;;;;;;6.30;3.17;;;2.60;99.90;;;;;;466098;255;27598;-80
2023/02/22 07:10:37;;;;;;;4.18;3.78;;;2.70;99.90;;;;;;466148;255;27702;-81
2023/02/22 07:12:38;;;;;;;6.22;4.25;;;2.80;99.90;;;;;;466190;255;27542;-81
2023/02/22 07:14:39;;;;;;;9.63;4.43;;;3.00;99.90;;;;;;466208;255;27551;-80
2023/02/22 07:16:41;;;;;;;8.70;5.15;;;3.20;99.90;;;;;;466206;253;27658;-79
2023/02/22 07:18:42;;;;;;;11.07;4.97;;;3.30;99.90;;;;;;466151;255;28041;-79
2023/02/22 07:20:43;;;;;;;6.95;4.53;;;3.40;99.90;;;;;;466407;253;28184;-80
2023/02/22 07:22:44;;;;;;;6.57;4.05;;;3.50;99.90;;;;;;466225;255;28059;-84
2023/02/22 07:24:46;;;;;;;8.95;4.50;;;3.60;99.90;;;;;;466228;255;27594;-80
2023/02/22 07:26:47;;;;;;;11.80;5.40;;;3.80;99.90;;;;;;466198;255;27692;-81
2023/02/22 07:28:48;;;;;;;8.57;5.22;;;3.90;99.90;;;;;;466197;255;27677;-80
2023/02/22 07:30:49;;;;;;;7.47;4.53;;;4.10;99.90;;;;;;466230;255;27709;-80
2023/02/22 07:32:51;;;;;;;10.70;5.07;;;4.20;99.90;;;;;;466301;253;27646;-81
2023/02/22 07:34:52;;;;;;;6.90;5.05;;;4.30;99.90;;;;;;466226;255;27672;-80
2023/02/22 07:36:53;;;;;;;7.80;4.72;;;4.40;99.90;;;;;;466249;255;27538;-82
2023/02/22 07:38:54;;;;;;;6.22;4.90;;;4.50;99.90;;;;;;466282;255;27586;-79
2023/02/22 07:40:56;;;;;;;5.25;4.50;;;4.70;99.90;;;;;;466187;255;28041;-81
2023/02/22 07:42:58;;;;;;;6.50;4.75;;;4.80;99.90;;;;;;466264;255;28093;-84
2023/02/22 07:44:58;;;;;;;9.50;4.90;;;5.00;99.90;;;;;;466191;255;28088;-80
2023/02/22 07:47:01;;;;;;;4.97;4.28;;;5.00;99.90;;;;;;466255;255;27542;-81
2023/02/22 07:49:01;;;;;;;5.85;4.65;;;5.20;99.90;;;;;;466287;255;27578;-81
2023/02/22 07:51:02;;;;;;;7.55;5.03;;;5.30;99.90;;;;;;466315;255;27593;-83
2023/02/22 07:53:03;;;;;;;7.60;4.85;;;5.40;99.90;;;;;;466275;255;27542;-80
2023/02/22 07:55:05;;;;;;;6.75;4.62;;;5.50;99.90;;;;;;466315;255;27697;-82
2023/02/22 07:57:06;;;;;;;7.55;5.47;;;5.60;99.90;;;;;;466285;255;27537;-82
2023/02/22 07:59:08;;;;;;;6.85;4.93;;;5.70;99.90;;;;;;466322;255;28118;-82
2023/02/22 08:01:09;;;;;;;11.40;5.70;;;5.80;99.90;;;;;;466335;255;27604;-82
2023/02/22 08:03:09;;;;;;;6.93;5.35;;;5.90;99.90;;;;;;466177;255;27534;-81
2023/02/22 08:05:11;;;;;;;6.32;4.75;;;6.00;99.90;;;;;;466313;255;27585;-81
2023/02/22 08:07:12;;;;;;;8.65;5.70;;;6.10;99.90;;;;;;466294;255;27561;-82
2023/02/22 08:09:13;;;;;;;6.37;5.17;;;6.20;99.90;;;;;;466258;255;27585;-82
2023/02/22 08:11:14;;;;;;;6.90;5.25;;;6.30;99.90;;;;;;466225;255;28537;-82
2023/02/22 08:13:16;;;;;;;8.88;5.93;;;6.40;99.90;;;;;;466221;255;28219;-81
2023/02/22 08:15:17;;;;;;;8.35;5.35;;;6.40;99.90;;;;;;466265;255;28072;-82
2023/02/22 08:17:18;;;;;;;9.02;6.32;;;6.50;99.90;;;;;;466245;255;27530;-82
2023/02/22 08:19:19;;;;;;;7.45;5.28;;;6.50;99.90;;;;;;466205;255;27573;-80
2023/02/22 08:21:21;;;;;;;7.20;5.77;;;6.60;99.90;;;;;;466321;253;27932;-81
2023/02/22 08:23:23;;;;;;;10.17;6.10;;;6.60;99.90;;;;;;466225;255;28922;-81
2023/02/22 08:25:24;;;;;;;7.50;5.23;;;6.60;99.90;;;;;;466232;255;28041;-81
2023/02/22 08:27:24;;;;;;;7.57;6.00;;;6.60;99.90;;;;;;466185;255;28211;-80
2023/02/22 08:29:32;;;;;;;9.43;6.53;;;6.70;99.90;;;;;;466195;255;28407;-81
2023/02/22 08:31:27;;;;;;;7.53;5.30;;;6.70;99.90;;;;;;466162;254;28941;-81
2023/02/22 08:33:28;;;;;;;9.90;6.33;;;6.80;99.90;;;;;;466216;255;28561;-81
2023/02/22 08:35:30;;;;;;;9.17;6.00;;;6.80;99.90;;;;;;466215;255;29351;-81
2023/02/22 08:37:31;;;;;;;7.30;5.50;;;6.80;99.90;;;;;;466199;255;29501;-82
2023/02/22 08:39:32;;;;;;;9.53;6.60;;;6.80;99.90;;;;;;466201;255;29077;-81
2023/02/22 08:41:33;;;;;;;8.63;5.87;;;6.80;99.90;;;;;;466162;255;28030;-82
2023/02/22 08:43:34;;;;;;;10.40;5.43;;;6.90;99.90;;;;;;466223;255;27593;-80
2023/02/22 08:45:36;;;;;;;9.33;5.87;;;6.90;99.90;;;;;;466171;255;28115;-80
2023/02/22 08:47:37;;;;;;;10.30;5.53;;;6.90;99.90;;;;;;466209;255;27654;-80
2023/02/22 08:49:38;;;;;;;9.47;7.30;;;7.00;99.90;;;;;;466244;255;28167;-80
2023/02/22 08:51:39;;;;;;;8.73;5.93;;;7.00;99.90;;;;;;466189;255;28071;-81
2023/02/22 08:53:41;;;;;;;10.00;6.70;;;7.10;99.90;;;;;;466194;255;28051;-81
2023/02/22 08:55:42;;;;;;;8.80;6.17;;;7.10;99.90;;;;;;466185;255;28203;-82
2023/02/22 08:57:43;;;;;;;10.63;8.37;;;7.20;99.90;;;;;;466184;255;27886;-83
2023/02/22 08:59:44;;;;;;;12.10;7.67;;;7.30;99.90;;;;;;466226;255;27932;-81
2023/02/22 09:01:46;;;;;;;12.87;8.50;;;7.40;99.90;;;;;;466240;252;28517;-81
2023/02/22 09:03:47;;;;;;;12.13;8.87;;;7.40;99.90;;;;;;465986;255;28495;-80
2023/02/22 09:05:48;;;;;;;15.80;10.87;;;7.50;99.90;;;;;;466266;255;28076;-81
2023/02/22 09:07:49;;;;;;;15.30;9.73;;;7.60;99.90;;;;;;466240;255;28026;-81
2023/02/22 09:09:51;;;;;;;16.37;11.50;;;7.70;99.90;;;;;;466203;255;28076;-82
2023/02/22 09:11:52;;;;;;;20.50;11.70;;;7.70;99.90;;;;;;466227;255;28070;-81
2023/02/22 09:13:53;;;;;;;20.87;13.50;;;7.80;99.90;;;;;;466234;255;28111;-81
2023/02/22 09:15:54;;;;;;;18.63;13.20;;;7.80;99.90;;;;;;466250;254;28074;-81
2023/02/22 09:17:56;;;;;;;17.67;13.50;;;7.80;99.90;;;;;;466228;255;28060;-83
2023/02/22 09:19:57;;;;;;;19.30;12.40;;;7.80;99.90;;;;;;466202;255;28142;-81
2023/02/22 09:22:01;;;;;;;27.23;14.80;;;7.90;99.90;;;;;;466178;255;28778;-80
2023/02/22 09:24:07;;;;;;;21.27;13.90;;;7.90;99.90;;;;;;466125;255;28536;-80
2023/02/22 09:26:01;;;;;;;29.40;16.57;;;7.90;99.90;;;;;;466245;255;28464;-81
2023/02/22 09:28:02;;;;;;;31.70;18.37;;;7.90;99.90;;;;;;466205;255;27902;-81
2023/02/22 09:30:03;;;;;;;33.20;17.73;;;8.00;99.90;;;;;;466572;253;28073;-81
2023/02/22 09:32:05;;;;;;;30.73;16.73;;;8.00;99.90;;;;;;466154;255;28166;-81
2023/02/22 09:34:12;;;;;;;30.60;17.43;;;8.00;99.90;;;;;;466051;255;27924;-81
2023/02/22 09:36:07;;;;;;;26.57;17.83;;;8.00;99.90;;;;;;466134;255;27786;-82
2023/02/22 09:38:09;;;;;;;30.57;17.33;;;8.10;99.90;;;;;;466207;255;27666;-81
2023/02/22 09:40:10;;;;;;;26.23;15.47;;;8.20;99.90;;;;;;466201;255;28162;-81
2023/02/22 09:42:11;;;;;;;21.73;14.00;;;8.30;99.90;;;;;;466025;255;28542;-81
2023/02/22 09:44:14;;;;;;;26.07;15.63;;;8.40;99.90;;;;;;466221;255;28257;-81
2023/02/22 09:46:17;;;;;;;26.20;15.10;;;8.40;99.90;;;;;;466200;255;27898;-81
2023/02/22 09:48:15;;;;;;;24.33;16.27;;;8.50;99.90;;;;;;466245;254;27986;-82
2023/02/22 09:50:16;;;;;;;25.73;17.53;;;8.50;99.90;;;;;;466163;253;28193;-81
2023/02/22 09:52:17;;;;;;;22.03;14.83;;;8.60;99.90;;;;;;466203;255;27718;-83
2023/02/22 09:54:18;;;;;;;22.53;15.80;;;8.60;99.90;;;;;;466223;255;27814;-81
2023/02/22 09:56:20;;;;;;;30.90;18.17;;;8.60;99.90;;;;;;466209;255;28083;-81
2023/02/22 09:58:21;;;;;;;28.00;18.80;;;8.70;99.90;;;;;;466209;255;28477;-81
2023/02/22 10:00:22;;;;;;;31.13;19.17;;;8.70;99.90;;;;;;466172;255;28659;-81
2023/02/22 10:02:23;;;;;;;27.40;16.73;;;8.80;99.90;;;;;;466206;255;28545;-81
2023/02/22 10:04:29;;;;;;;22.80;15.83;;;8.80;99.90;;;;;;466235;255;28093;-81
2023/02/22 10:06:26;;;;;;;31.90;17.87;;;8.80;99.90;;;;;;466194;255;28079;-82
2023/02/22 10:08:28;;;;;;;29.27;18.17;;;8.80;99.90;;;;;;466203;255;27670;-80
2023/02/22 10:10:32;;;;;;;29.00;18.57;;;8.90;99.90;;;;;;466077;255;28088;-81
2023/02/22 10:12:30;;;;;;;33.80;18.90;;;9.00;99.90;;;;;;466203;254;28197;-81
2023/02/22 10:14:32;;;;;;;32.80;20.10;;;9.00;99.90;;;;;;466154;255;28062;-80
2023/02/22 10:16:32;;;;;;;33.13;18.70;;;9.10;99.90;;;;;;466195;255;28294;-81
2023/02/22 10:18:33;;;;;;;29.00;18.77;;;9.20;99.90;;;;;;466213;255;28370;-82
2023/02/22 10:20:36;;;;;;;31.70;20.03;;;9.20;99.90;;;;;;466174;255;28625;-80
2023/02/22 10:22:36;;;;;;;22.50;16.03;;;9.20;99.90;;;;;;466122;255;28042;-81
2023/02/22 10:24:38;;;;;;;28.67;17.37;;;9.20;99.90;;;;;;466203;255;28041;-81
2023/02/22 10:26:38;;;;;;;27.03;17.00;;;9.20;99.90;;;;;;466218;255;27591;-81
2023/02/22 10:28:40;;;;;;;26.97;16.00;;;9.20;99.90;;;;;;466232;255;28049;-81
2023/02/22 10:30:41;;;;;;;29.90;18.30;;;9.20;99.90;;;;;;466237;255;28083;-81
2023/02/22 10:32:44;;;;;;;32.30;16.90;;;9.30;99.90;;;;;;466208;254;27930;-81
2023/02/22 10:34:43;;;;;;;29.40;18.40;;;9.40;99.90;;;;;;466184;255;28573;-80